Station info - map view · info · telemetry · weather · raw · status · beacons · messages · bulletins · browse · moving · my account
Callsign, ship name or locator: Clear       
It is possible to search using wildcards (*?) after a prefix. Example: OH*
APRS station KI6TLC-9 - show graphs
Map loading...
Comment: 146.520MHz Land Cruiser
Location: 38°09.65' N 122°27.32' W - locator CM88SD58IO - show map - static map
4.4 miles Northeast bearing 45° from Black Point-Green Point, Marin County, California, United States [?]
7.2 miles Northeast bearing 59° from Novato, Marin County, California, United States
26.7 miles North bearing 356° from San Francisco, San Francisco County, California, United States
64.4 miles Northwest bearing 332° from San Jose, Santa Clara County, California, United States
Last position: 2019-12-05 20:09:02 EST (22h2m ago)
2019-12-05 17:09:02 PST local time at Black Point-Green Point, United States [?]
Altitude: -49 ft
Course: 125°
Speed: 12 MPH
Device: Open Source: APRSdroid (app, Android)
Last path: KI6TLC-9>APDR15 via W6CX-3*,AC6ET-5*,qAR,W6PKT-5 (good)
Positions stored: 7626
Packet rate: 113 seconds between packets on average during 5527 seconds.
Other SSIDs: KI6TLC KI6TLC-5 KI6TLC-7
Stations near current position of KI6TLC-9 - show more
callsign distance last heard - EST      callsign distance last heard - EST
FW46284.0 miles 48°2019-12-06 16:33:19 AI6EE-105.9 miles 232°2019-12-06 18:01:25
KB6HOH-105.9 miles 232°2019-12-06 18:01:25 KN6FCB-96.2 miles 268°2019-11-10 10:53:37
KD7WPJ7.5 miles 262°2019-11-16 17:28:44 W6/NC-3537.5 miles 262°2019-11-16 16:50:25
EW72277.8 miles 239°2019-12-06 18:07:50 NJ6E-68.5 miles 4°2019-12-06 18:06:00
EW04338.9 miles 242°2019-12-06 18:08:22 AK6RF-79.3 miles 301°2019-11-15 20:09:51
CW654410.1 miles 302°2019-12-06 18:06:57 K6ETA-710.2 miles 305°2019-12-06 18:07:45
K6ETA-1010.2 miles 296°2019-12-06 18:01:25 N6GEB-110.5 miles 293°2019-11-16 22:30:01
W6/NC-30410.7 miles 229°2019-11-24 14:46:21 FW105810.8 miles 91°2019-12-06 18:01:52
WB6TMS-610.8 miles 228°2019-12-06 18:05:12 KB0EAT-910.9 miles 307°2019-11-28 23:32:22
FW432611.1 miles 333°2019-12-06 18:02:21 K6BES-1011.4 miles 297°2019-12-05 23:18:29
Stations which heard KI6TLC-9 directly on radio –
callsign pkts first heard - EST last heard longest (tx => rx) longest at - EST
K6TJS 1 2019-12-05 16:08:19 2019-12-05 16:08:19 CM96FW > CM97OB 41.7 miles 77° 2019-12-05 16:08:19
WR6ABD 48 2019-12-05 15:34:06 2019-12-05 18:47:18 CM87SW > CM97BC 65.9 miles 150° 2019-12-05 18:47:18
K6JE-3 41 2019-12-05 14:58:16 2019-12-05 16:18:41 CM96KE > CM96FS 43.3 miles 333° 2019-12-05 14:59:09
W6CX-3 5 2019-12-05 17:15:05 2019-12-05 20:09:02 CM88RC > CM97BV 36.4 miles 115° 2019-12-05 19:20:00
N6ZX-3 19 2019-12-05 17:22:55 2019-12-05 18:43:21 CM87TW > CM87UK 34.6 miles 173° 2019-12-05 18:43:21
K6CDF-5 1 2019-12-05 19:19:20 2019-12-05 19:19:20 CM88RC > CM88PU 53.6 miles 348° 2019-12-05 19:19:20
KC6SSM-5 12 2019-12-05 18:18:55 2019-12-05 19:11:56 CM88RB > CM87UV 17.1 miles 128° 2019-12-05 19:11:56
WB6TMS-6 7 2019-12-05 18:18:56 2019-12-05 19:15:55 CM87UT > CM88QB 24.8 miles 315° 2019-12-05 18:18:56
W6AB-15 3 2019-12-05 13:12:56 2019-12-05 13:16:58 CM95PE > CM94SS 30.8 miles 158° 2019-12-05 13:16:58
K6RPT 1 2019-12-05 16:58:30 2019-12-05 16:58:30 CM97DE > CM97BG 10.0 miles 290° 2019-12-05 16:58:30
W6IA 4 2019-12-05 17:06:06 2019-12-05 17:15:02 CM97BI > CM97BG 6.3 miles 185° 2019-12-05 17:15:02
KH6L-3 4 2019-12-05 16:56:11 2019-12-05 17:09:18 CM97BH > CM97BE 8.7 miles 180° 2019-12-05 17:09:18
K6NLC-5 10 2019-12-05 13:19:39 2019-12-05 13:29:33 CM95QH > CM95QG 4.7 miles 199° 2019-12-05 13:29:33
W6SRR-3 10 2019-12-05 17:13:16 2019-12-05 18:17:10 CM87US > CM97AO 21.9 miles 122° 2019-12-05 18:17:10
NU6XB-5 6 2019-12-05 18:19:14 2019-12-05 18:36:27 CM87UT > CM87UV 5.2 miles 18° 2019-12-05 18:19:14
WB9VXY-4 4 2019-12-05 13:22:45 2019-12-05 13:26:41 CM95QH > CM95OG 9.9 miles 265° 2019-12-05 13:26:41
WB9VXY-5 10 2019-12-05 13:24:46 2019-12-05 14:02:31 CM95PS > CM95PJ 25.4 miles 181° 2019-12-05 14:02:31
K6SYV-10 4 2019-12-05 13:12:40 2019-12-05 13:15:56 CM95PD > CM94XR 48.0 miles 128° 2019-12-05 13:15:56
KB6CIO-4 3 2019-12-05 13:54:59 2019-12-05 14:02:54 CM95PP > CM95RR 8.7 miles 57° 2019-12-05 13:54:59
K7AZ-10 5 2019-12-05 13:05:22 2019-12-05 13:30:31 CM95QI > CM94SO 51.4 miles 171° 2019-12-05 13:30:31
W6PW-10 9 2019-12-05 18:14:03 2019-12-05 18:40:59 CM87TW > CM87SS 13.1 miles 210° 2019-12-05 18:39:14
AG6QR-1 2 2019-12-05 18:57:48 2019-12-05 19:01:10 CM88RA > CM88RA 0.7 miles 289° 2019-12-05 18:57:48
NB2Y-10 1 2019-12-05 17:31:58 2019-12-05 17:31:58 CM87XN > CM87XN 1.1 miles 51° 2019-12-05 17:31:58
W6RR 20 2019-12-05 13:35:33 2019-12-05 14:09:19 CM95QJ > CM95PP 16.2 miles 342° 2019-12-05 13:35:33
WB6TMS-5 18 2019-12-05 18:17:13 2019-12-05 20:00:42 CM87US > CM88RI 42.3 miles 336° 2019-12-05 18:17:13

Only position packets which were originated by the station are shown here. The range statistics show some extra long hops, because some digipeaters do not correctly add themselves to the digipeater path. Please check the raw packets.
About this site
This page shows real-time information collected from the Automatic Position Reporting System Internet network (APRS-IS). APRS is used by amateur (ham) radio operators to transmit real-time position information, weather data, telemetry and messages over the radio. A vehicle equipped with a GPS receiver, a VHF transmitter or HF transceiver and a small computer device called a tracker transmits it's location, speed and course in a small data packet, which is then received by a nearby iGate receiving site which forwards the packet on the Internet. Systems connected to the Internet can send information on the APRS-IS without a radio transmitter, or collect and display information transmitted anywhere in the world.
User guide · FAQ · Blog · Discussion group · Linking to aprs.fi · AIS sites · Service status · Database statistics · Advertising on aprs.fi · Technical details · API · Change log · Planned changes · Credits and thanks · Terms Of Service · iPhone/iPad APRS